createdAt,value
2022-10-20T00:00:33.240Z,78.06
2022-10-20T00:02:59.930Z,78.48
2022-10-20T00:05:26.651Z,78.97
2022-10-20T00:07:53.360Z,78.86
2022-10-20T00:10:20.082Z,78.82
2022-10-20T00:12:46.753Z,78.84
2022-10-20T00:15:13.468Z,78.63
2022-10-20T00:17:40.195Z,78.48
2022-10-20T00:20:07.555Z,78.62
2022-10-20T00:22:34.569Z,78.49
2022-10-20T00:25:01.544Z,78.70
2022-10-20T00:27:28.230Z,78.95
2022-10-20T00:29:54.896Z,78.81
2022-10-20T00:32:21.603Z,78.27
2022-10-20T00:34:48.317Z,77.89
2022-10-20T00:37:15.353Z,77.96
2022-10-20T00:39:42.041Z,78.55
2022-10-20T00:42:15.479Z,78.31
2022-10-20T00:44:47.710Z,78.50
2022-10-20T00:47:19.532Z,78.81
2022-10-20T00:49:47.377Z,78.96
2022-10-20T00:52:15.836Z,78.93
2022-10-20T00:54:42.620Z,78.87
2022-10-20T00:57:09.615Z,78.60
2022-10-20T00:59:52.827Z,78.80
2022-10-20T01:02:20.262Z,78.73
2022-10-20T01:04:47.744Z,78.98
2022-10-20T01:07:14.507Z,78.73
2022-10-20T01:09:41.374Z,79.38
2022-10-20T01:12:28.664Z,79.36
2022-10-20T01:14:59.916Z,78.89
2022-10-20T01:17:43.732Z,79.36
2022-10-20T01:20:25.594Z,79.69
2022-10-20T01:23:08.503Z,79.99
2022-10-20T01:25:35.339Z,80.04
2022-10-20T01:28:11.099Z,80.24
2022-10-20T01:30:46.799Z,80.55
2022-10-20T01:33:31.378Z,80.24
2022-10-20T01:36:22.253Z,80.18
2022-10-20T01:38:55.639Z,80.41
2022-10-20T01:41:34.246Z,80.66
2022-10-20T01:44:07.919Z,80.57
2022-10-20T01:46:37.704Z,80.55
2022-10-20T01:49:08.095Z,80.98
2022-10-20T01:51:36.715Z,81.08
2022-10-20T01:54:03.869Z,81.44
2022-10-20T01:56:41.911Z,81.40
2022-10-20T01:59:24.173Z,81.26
2022-10-20T02:02:06.388Z,80.67
2022-10-20T02:04:41.010Z,80.72
2022-10-20T02:07:16.637Z,81.16
2022-10-20T02:09:50.979Z,80.93
2022-10-20T02:12:24.660Z,81.57
2022-10-20T02:14:52.709Z,82.07
2022-10-20T02:17:20.445Z,82.70
2022-10-20T02:19:50.236Z,82.98
2022-10-20T02:22:19.275Z,83.55
2022-10-20T02:24:48.099Z,83.42
2022-10-20T02:27:20.611Z,83.19
2022-10-20T02:29:55.790Z,82.46
2022-10-20T02:32:24.303Z,81.92
2022-10-20T02:34:51.055Z,81.70
2022-10-20T02:37:17.877Z,81.37
2022-10-20T02:39:44.572Z,81.36
2022-10-20T02:42:12.503Z,80.86
2022-10-20T02:44:39.212Z,80.76
2022-10-20T02:47:06.134Z,80.66
2022-10-20T02:49:32.800Z,80.48
2022-10-20T02:51:59.565Z,80.78
2022-10-20T02:54:28.803Z,81.17
2022-10-20T02:56:55.907Z,81.40
2022-10-20T02:59:22.676Z,81.83
2022-10-20T03:01:51.398Z,82.36
2022-10-20T03:04:18.648Z,82.30
2022-10-20T03:06:45.549Z,82.42
2022-10-20T03:09:12.336Z,82.44
2022-10-20T03:11:39.002Z,81.87
2022-10-20T03:14:05.790Z,82.05
2022-10-20T03:16:32.642Z,81.82
2022-10-20T03:19:03.330Z,82.23
2022-10-20T03:21:34.222Z,81.99
2022-10-20T03:24:01.946Z,81.93
2022-10-20T03:26:29.060Z,81.77
2022-10-20T03:28:56.107Z,81.23
2022-10-20T03:31:23.048Z,80.78
2022-10-20T03:33:50.260Z,80.55
2022-10-20T03:36:17.291Z,80.77
2022-10-20T03:38:44.282Z,80.84
2022-10-20T03:41:12.777Z,81.46
2022-10-20T03:43:41.308Z,81.82
2022-10-20T03:46:11.312Z,82.13
2022-10-20T03:48:40.810Z,82.04
2022-10-20T03:51:09.716Z,82.62
2022-10-20T03:53:39.162Z,82.35
2022-10-20T03:56:10.166Z,82.43
2022-10-20T03:58:37.066Z,82.32
2022-10-20T04:01:06.654Z,82.16
2022-10-20T04:03:33.761Z,82.27
2022-10-20T04:06:01.854Z,82.73
2022-10-20T04:08:28.838Z,82.83
2022-10-20T04:10:56.078Z,82.29
2022-10-20T04:13:23.277Z,82.26
2022-10-20T04:15:51.365Z,82.18
2022-10-20T04:18:18.371Z,81.69
2022-10-20T04:20:45.430Z,81.33
2022-10-20T04:23:12.682Z,81.36
2022-10-20T04:25:45.719Z,81.19
2022-10-20T04:28:13.808Z,81.24
2022-10-20T04:30:41.642Z,80.92
2022-10-20T04:33:09.338Z,80.65
2022-10-20T04:35:36.216Z,80.70
2022-10-20T04:38:04.273Z,80.49
2022-10-20T04:40:31.736Z,80.30
2022-10-20T04:43:01.565Z,80.09
2022-10-20T04:45:33.274Z,80.32
2022-10-20T04:48:03.890Z,80.36
2022-10-20T04:50:31.095Z,80.46
2022-10-20T04:53:08.049Z,80.65
2022-10-20T04:55:39.670Z,81.06
2022-10-20T04:58:09.214Z,81.20
2022-10-20T05:00:38.068Z,81.62
2022-10-20T05:03:06.009Z,81.41
2022-10-20T05:05:33.872Z,82.14
2022-10-20T05:08:00.782Z,81.94
2022-10-20T05:10:27.932Z,82.99
2022-10-20T05:12:55.013Z,82.43
2022-10-20T05:15:22.124Z,82.24
2022-10-20T05:20:41.098Z,81.45
2022-10-20T05:23:13.690Z,81.55
2022-10-20T05:25:40.695Z,81.71
2022-10-20T05:28:08.196Z,82.69
2022-10-20T05:30:36.237Z,82.54
2022-10-20T05:33:03.934Z,82.51
2022-10-20T05:35:32.472Z,82.65
2022-10-20T05:38:01.854Z,81.93
2022-10-20T05:40:29.644Z,81.88
2022-10-20T05:42:58.108Z,82.23
2022-10-20T05:45:25.123Z,82.32
2022-10-20T05:47:52.677Z,82.55
2022-10-20T05:50:20.651Z,82.40
2022-10-20T05:52:47.624Z,82.74
2022-10-20T05:55:14.669Z,82.09
2022-10-20T05:57:41.887Z,82.07
2022-10-20T06:00:10.590Z,82.09
2022-10-20T06:02:39.064Z,82.34
2022-10-20T06:05:06.187Z,82.15
2022-10-20T06:07:33.414Z,81.61
2022-10-20T06:10:00.881Z,81.06
2022-10-20T06:12:28.070Z,80.69
2022-10-20T06:14:55.199Z,80.24
2022-10-20T06:17:22.145Z,79.63
2022-10-20T06:19:49.839Z,79.33
2022-10-20T06:22:19.381Z,79.00
2022-10-20T06:24:47.251Z,78.34
2022-10-20T06:27:15.142Z,77.96
2022-10-20T06:29:45.051Z,76.80
2022-10-20T06:34:44.952Z,73.88
2022-10-20T06:37:12.383Z,72.12
2022-10-20T06:39:39.619Z,70.80
2022-10-20T06:45:22.543Z,67.40
2022-10-20T06:48:25.491Z,65.74
2022-10-20T06:51:11.567Z,64.25
2022-10-20T06:53:51.916Z,62.85
2022-10-20T06:56:27.579Z,61.61
2022-10-20T06:58:59.498Z,60.79
2022-10-20T07:01:39.037Z,61.05
2022-10-20T07:04:22.192Z,60.85
2022-10-20T07:07:03.700Z,60.23
2022-10-20T07:09:38.878Z,58.81
2022-10-20T07:12:36.477Z,57.83
2022-10-20T07:15:30.843Z,56.85
2022-10-20T07:18:26.798Z,56.67
2022-10-20T07:21:35.801Z,56.89
2022-10-20T07:24:40.544Z,56.64
2022-10-20T07:40:15.024Z,49.93
2022-10-20T07:43:44.741Z,48.79
2022-10-20T08:02:35.738Z,44.26
2022-10-20T08:05:42.390Z,42.85
2022-10-20T08:08:58.790Z,41.15
2022-10-20T08:11:50.352Z,40.46
2022-10-20T08:22:34.036Z,39.46
2022-10-20T08:25:27.340Z,39.07
2022-10-20T08:31:13.676Z,37.94
2022-10-20T08:33:46.785Z,37.28
2022-10-20T09:06:20.173Z,37.48
2022-10-20T09:09:09.416Z,39.94
2022-10-20T09:12:07.525Z,40.66
2022-10-20T09:14:38.047Z,40.69
2022-10-20T09:17:34.054Z,42.18
2022-10-20T09:27:49.511Z,41.53
2022-10-20T09:30:34.906Z,42.73
2022-10-20T09:33:27.788Z,41.29
2022-10-20T09:36:21.692Z,41.48
2022-10-20T09:38:52.379Z,41.92
2022-10-20T09:41:27.125Z,42.48
2022-10-20T09:52:32.846Z,39.76
2022-10-20T09:55:26.950Z,38.48
2022-10-20T09:57:56.068Z,40.72
2022-10-20T10:00:37.219Z,41.56
2022-10-20T10:03:16.268Z,41.48
2022-10-20T10:05:44.480Z,42.77
2022-10-20T10:12:27.315Z,40.20
2022-10-20T10:15:21.744Z,41.12
2022-10-20T10:17:50.487Z,40.63
2022-10-20T10:24:05.347Z,41.85
2022-10-20T10:26:35.887Z,42.68
2022-10-20T10:29:04.232Z,43.11
2022-10-20T10:31:40.530Z,42.65
2022-10-20T10:39:20.342Z,40.17
2022-10-20T10:42:09.742Z,40.07
2022-10-20T10:45:18.034Z,40.82
2022-10-20T10:48:34.861Z,40.35
2022-10-20T10:51:46.608Z,39.88
2022-10-20T10:54:34.272Z,38.88
2022-10-20T10:58:11.468Z,40.37
2022-10-20T11:01:06.950Z,39.79
2022-10-20T11:03:43.370Z,40.18
2022-10-20T11:06:19.352Z,40.63
2022-10-20T11:13:42.405Z,39.05
2022-10-20T11:16:37.698Z,38.76
2022-10-20T11:19:32.086Z,37.69
2022-10-20T11:22:27.014Z,38.75
2022-10-20T11:29:16.740Z,39.08
2022-10-20T11:32:04.715Z,39.40
2022-10-20T11:35:00.987Z,39.12
2022-10-20T11:37:38.635Z,38.60
2022-10-20T11:40:23.774Z,37.78
2022-10-20T11:43:33.912Z,38.44
2022-10-20T11:46:17.342Z,39.00
2022-10-20T11:48:54.426Z,39.14
2022-10-20T11:51:37.668Z,37.79
2022-10-20T11:54:22.538Z,38.62
2022-10-20T11:57:11.176Z,37.94
2022-10-20T11:59:46.945Z,38.54
2022-10-20T12:02:55.754Z,38.21
2022-10-20T12:05:52.387Z,38.41
2022-10-20T12:08:42.274Z,37.66
2022-10-20T12:12:01.433Z,35.96
2022-10-20T12:17:47.165Z,34.40
2022-10-20T12:24:33.398Z,32.95
2022-10-20T12:27:28.026Z,32.38
2022-10-20T12:30:38.272Z,30.91
2022-10-20T12:33:47.644Z,30.20
2022-10-20T12:36:15.245Z,30.66
2022-10-20T12:38:52.257Z,30.04
2022-10-20T12:42:03.060Z,29.32
2022-10-20T12:44:51.909Z,29.20
2022-10-20T12:47:49.875Z,29.10
2022-10-20T12:50:49.949Z,28.67
2022-10-20T12:53:23.159Z,28.13
2022-10-20T12:56:01.595Z,27.82
2022-10-20T12:58:39.827Z,28.02
2022-10-20T13:01:21.843Z,28.50
2022-10-20T13:03:57.780Z,28.42
2022-10-20T13:07:08.620Z,27.81
2022-10-20T13:09:58.956Z,27.59
2022-10-20T13:12:45.550Z,28.01
2022-10-20T13:19:07.726Z,27.49
2022-10-20T13:22:27.544Z,26.64
2022-10-20T13:55:29.187Z,24.94
2022-10-20T14:56:31.975Z,30.81
2022-10-20T15:07:02.404Z,36.68
2022-10-20T15:13:04.491Z,40.49
2022-10-20T15:15:44.405Z,41.58
2022-10-20T15:18:18.100Z,43.02
2022-10-20T15:20:51.607Z,44.03
2022-10-20T15:23:23.672Z,45.42
2022-10-20T15:26:15.332Z,46.13
2022-10-20T15:28:48.902Z,47.08
2022-10-20T15:31:26.484Z,47.80
2022-10-20T15:34:00.998Z,48.70
2022-10-20T15:36:33.665Z,49.54
2022-10-20T15:39:05.478Z,50.59
2022-10-20T15:41:37.118Z,51.43
2022-10-20T15:44:22.699Z,52.55
2022-10-20T15:47:51.294Z,53.41
2022-10-20T15:51:02.357Z,54.46
2022-10-20T15:53:30.192Z,55.19
2022-10-20T15:56:04.895Z,55.70
2022-10-20T15:58:34.985Z,56.23
2022-10-20T16:01:07.850Z,57.07
2022-10-20T16:03:36.552Z,57.48
2022-10-20T16:06:03.523Z,58.08
2022-10-20T16:08:33.331Z,59.70
2022-10-20T16:11:03.702Z,59.76
2022-10-20T16:13:39.694Z,60.01
2022-10-20T16:16:11.029Z,60.71
2022-10-20T16:18:38.247Z,61.66
2022-10-20T16:21:08.250Z,62.76
2022-10-20T16:24:29.669Z,63.54
2022-10-20T16:27:29.492Z,64.12
2022-10-20T16:30:02.314Z,65.08
2022-10-20T16:32:32.972Z,65.97
2022-10-20T16:35:04.354Z,65.86
2022-10-20T16:37:32.406Z,66.05
2022-10-20T16:40:00.341Z,66.26
2022-10-20T16:42:30.226Z,66.20
2022-10-20T16:44:57.429Z,66.70
2022-10-20T16:47:25.995Z,66.76
2022-10-20T16:49:53.201Z,67.13
2022-10-20T16:52:20.400Z,67.57
2022-10-20T16:54:47.143Z,68.49
2022-10-20T16:57:14.162Z,68.62
2022-10-20T16:59:42.989Z,69.28
2022-10-20T17:02:12.691Z,69.26
2022-10-20T17:04:39.555Z,69.63
2022-10-20T17:07:08.662Z,70.18
2022-10-20T17:09:35.505Z,70.44
2022-10-20T17:12:02.217Z,70.77
2022-10-20T17:14:29.677Z,71.17
2022-10-20T17:16:56.828Z,71.72
2022-10-20T17:19:23.607Z,71.50
2022-10-20T17:21:53.736Z,71.29
2022-10-20T17:24:22.650Z,71.19
2022-10-20T17:26:49.414Z,71.16
2022-10-20T17:29:16.087Z,71.15
2022-10-20T17:31:42.903Z,71.24
2022-10-20T17:34:10.011Z,71.27
2022-10-20T17:36:36.721Z,70.71
2022-10-20T17:39:06.365Z,70.28
2022-10-20T17:41:33.615Z,70.71
2022-10-20T17:44:01.858Z,71.33
2022-10-20T17:46:28.741Z,71.75
2022-10-20T17:48:55.561Z,71.41
2022-10-20T17:51:27.803Z,71.38
2022-10-20T17:53:58.201Z,71.32
2022-10-20T17:56:28.080Z,71.47
2022-10-20T17:58:56.357Z,71.44
2022-10-20T18:01:26.838Z,71.82
2022-10-20T18:03:57.379Z,71.64
2022-10-20T18:06:28.898Z,71.86
2022-10-20T18:09:02.754Z,72.21
2022-10-20T18:11:32.117Z,72.24
2022-10-20T18:14:00.129Z,72.28
2022-10-20T18:16:30.164Z,72.59
2022-10-20T18:19:02.157Z,72.22
2022-10-20T18:21:30.972Z,71.75
2022-10-20T18:24:02.357Z,71.99
2022-10-20T18:26:31.796Z,71.76
2022-10-20T18:29:00.523Z,71.81
2022-10-20T18:31:30.831Z,72.14
2022-10-20T18:34:04.088Z,72.58
2022-10-20T18:36:36.967Z,72.28
2022-10-20T18:39:07.211Z,72.83
2022-10-20T18:41:39.244Z,72.56
2022-10-20T18:44:10.909Z,73.03
2022-10-20T18:46:39.259Z,73.09
2022-10-20T18:49:07.409Z,72.97
2022-10-20T18:51:35.731Z,72.86
2022-10-20T18:54:03.804Z,73.09
2022-10-20T18:56:31.457Z,73.18
2022-10-20T18:59:00.871Z,73.50
2022-10-20T19:01:31.526Z,73.84
2022-10-20T19:04:01.045Z,74.11
2022-10-20T19:06:33.110Z,74.28
2022-10-20T19:09:02.946Z,74.21
2022-10-20T19:11:32.209Z,74.55
2022-10-20T19:14:00.841Z,74.28
2022-10-20T19:16:30.546Z,74.15
2022-10-20T19:18:59.295Z,74.06
2022-10-20T19:21:29.788Z,74.36
2022-10-20T19:24:02.309Z,74.43
2022-10-20T19:26:32.111Z,74.75
2022-10-20T19:29:04.637Z,74.95
2022-10-20T19:31:39.912Z,75.55
2022-10-20T19:34:11.576Z,75.58
2022-10-20T19:36:40.095Z,76.03
2022-10-20T19:39:10.615Z,75.72
2022-10-20T19:41:37.644Z,75.82
2022-10-20T19:44:04.920Z,75.78
2022-10-20T19:46:31.918Z,75.82
2022-10-20T19:48:59.524Z,76.06
2022-10-20T19:51:26.432Z,75.94
2022-10-20T19:53:53.243Z,76.45
2022-10-20T19:56:20.138Z,76.42
2022-10-20T19:58:48.500Z,76.44
2022-10-20T20:01:16.595Z,76.69
2022-10-20T20:03:44.926Z,77.25
2022-10-20T20:06:16.618Z,77.56
2022-10-20T20:08:46.698Z,77.72
2022-10-20T20:11:23.486Z,77.55
2022-10-20T20:13:51.715Z,77.35
2022-10-20T20:16:18.508Z,77.88
2022-10-20T20:18:45.459Z,78.08
2022-10-20T20:21:13.351Z,78.10
2022-10-20T20:23:58.414Z,78.36
2022-10-20T20:26:27.451Z,78.06
2022-10-20T20:28:55.316Z,78.31
2022-10-20T20:31:22.985Z,78.06
2022-10-20T20:33:50.364Z,77.72
2022-10-20T20:36:17.110Z,77.39
2022-10-20T20:38:44.231Z,76.99
2022-10-20T20:41:14.879Z,77.39
2022-10-20T20:43:41.617Z,77.94
2022-10-20T20:46:33.497Z,77.70
2022-10-20T20:49:01.519Z,77.68
2022-10-20T20:51:34.002Z,77.85
2022-10-20T20:54:02.258Z,78.16
2022-10-20T20:56:28.941Z,77.93
2022-10-20T20:58:55.893Z,77.81
2022-10-20T21:01:27.534Z,77.97
2022-10-20T21:03:56.395Z,77.84
2022-10-20T21:06:33.317Z,77.84
2022-10-20T21:09:01.443Z,77.60
2022-10-20T21:11:28.509Z,77.51
2022-10-20T21:13:57.527Z,78.31
2022-10-20T21:16:32.150Z,77.65
2022-10-20T21:19:01.809Z,77.60
2022-10-20T21:21:31.313Z,77.32
2022-10-20T21:23:59.655Z,77.60
2022-10-20T21:26:28.407Z,77.61
2022-10-20T21:28:55.146Z,77.44
2022-10-20T21:31:25.184Z,77.08
2022-10-20T21:33:54.939Z,77.10
2022-10-20T21:36:22.928Z,76.70
2022-10-20T21:38:50.334Z,76.79
2022-10-20T21:41:19.765Z,76.75
2022-10-20T21:43:49.137Z,76.99
2022-10-20T21:46:20.239Z,77.35
2022-10-20T21:48:49.104Z,77.28
2022-10-20T21:51:22.455Z,77.60
2022-10-20T21:53:49.766Z,76.96
2022-10-20T21:56:16.639Z,76.55
2022-10-20T21:58:43.390Z,76.62
2022-10-20T22:01:16.456Z,77.09
2022-10-20T22:03:46.032Z,77.58
2022-10-20T22:06:14.850Z,77.74
2022-10-20T22:08:44.554Z,78.01
2022-10-20T22:11:14.813Z,77.75
2022-10-20T22:13:42.019Z,77.86
2022-10-20T22:16:12.195Z,78.00
2022-10-20T22:18:39.230Z,78.83
2022-10-20T22:21:11.176Z,78.60
2022-10-20T22:23:41.302Z,78.74
2022-10-20T22:26:08.408Z,78.49
2022-10-20T22:28:35.458Z,78.37
2022-10-20T22:31:02.272Z,78.63
2022-10-20T22:33:29.167Z,78.60
2022-10-20T22:35:55.922Z,78.64
2022-10-20T22:38:22.636Z,78.88
2022-10-20T22:40:49.730Z,78.80
2022-10-20T22:43:16.492Z,78.59
2022-10-20T22:45:43.279Z,78.43
2022-10-20T22:48:09.970Z,77.83
2022-10-20T22:50:36.695Z,78.11
2022-10-20T22:53:03.455Z,77.95
2022-10-20T22:55:30.205Z,77.97
2022-10-20T23:00:28.586Z,77.92
2022-10-20T23:02:55.829Z,78.27
2022-10-20T23:05:23.127Z,77.98
2022-10-20T23:07:49.814Z,77.65
2022-10-20T23:10:16.603Z,77.59
2022-10-20T23:12:43.311Z,77.22
2022-10-20T23:15:10.553Z,77.01
2022-10-20T23:17:37.952Z,77.22
2022-10-20T23:20:05.768Z,77.25
2022-10-20T23:22:32.569Z,77.56
2022-10-20T23:24:59.399Z,77.67
2022-10-20T23:27:26.110Z,77.40
2022-10-20T23:29:52.834Z,77.63
2022-10-20T23:32:19.498Z,77.57
2022-10-20T23:34:46.206Z,77.24
2022-10-20T23:37:12.902Z,77.05
2022-10-20T23:39:39.576Z,77.24
2022-10-20T23:42:07.359Z,77.52
2022-10-20T23:44:34.431Z,77.70
2022-10-20T23:47:01.144Z,77.69
2022-10-20T23:49:27.860Z,77.55
2022-10-20T23:51:54.626Z,77.93
2022-10-20T23:54:21.492Z,77.98
2022-10-20T23:56:48.197Z,77.90
2022-10-20T23:59:15.235Z,78.01
